Maldives Meteorological Service

TAFS

Station TAF
VRMM
VRMM 091100Z 0912/1018 22008KT 9999 FEW018TCU TEMPO 0914/0920 4000 TSRA SCT016 FEW017CB=
VRMH
VRMH 091100Z 0912/1018 24007KT 9999 FEW018TCU TEMPO 0913/0919 5000 -TSRA FEW017CB=
VRMK
VRMK 091100Z 0912/1012 18005KT 9999 FEW018TCU TEMPO 0912/0918 FEW018CB=
VRMT
VRMT 091100Z 0912/1012 10004KT 9999 FEW018TCU BKN120 TEMPO 0913/0920 5000 -TSRA FEW017CB=
VRMG
VRMG 091100Z 0912/1018 12008KT 9999 FEW017TCU BKN120 TEMPO 0912/0918 3000 TSRA SCT017CB=